Welcome to the New NWS' Forecast!
Most changes are behind the scenes, but click here for differences you might notice.

Terminal Aerodrome Forecast (TAF)

Issued by National Weather Service (NWS)

                            
000
FTUS42 KKEY 180457 AAC
TAFEYW
TAF AMD
KEYW 180457Z 1805/1824 08008G16KT P6SM VCSH SCT025 SCT035
      TEMPO 1805/1806 TS SCT025CB
     FM181000 08012KT P6SM SCT025
     FM181400 10012G20KT P6SM FEW025=